createdAt,value
2023-02-09T00:02:25.338Z,-3.00
2023-02-09T00:04:53.646Z,-2.90
2023-02-09T00:07:21.810Z,-3.00
2023-02-09T00:09:55.154Z,-3.00
2023-02-09T00:12:41.254Z,-3.00
2023-02-09T00:15:10.089Z,-3.10
2023-02-09T00:17:39.581Z,-3.10
2023-02-09T00:20:09.620Z,-3.00
2023-02-09T00:22:37.750Z,-3.20
2023-02-09T00:25:06.670Z,-3.30
2023-02-09T00:27:35.868Z,-3.40
2023-02-09T00:30:05.586Z,-3.30
2023-02-09T00:32:34.354Z,-3.20
2023-02-09T00:35:07.762Z,-3.10
2023-02-09T00:37:36.951Z,-3.20
2023-02-09T00:40:06.660Z,-3.30
2023-02-09T00:42:38.061Z,-3.50
2023-02-09T00:45:07.820Z,-3.30
2023-02-09T00:47:36.056Z,-3.40
2023-02-09T00:50:08.082Z,-3.40
2023-02-09T00:52:36.823Z,-3.30
2023-02-09T00:55:05.451Z,-3.40
2023-02-09T00:57:34.160Z,-3.50
2023-02-09T01:00:02.343Z,-3.50
2023-02-09T05:04:21.597Z,-4.10
2023-02-09T05:06:49.750Z,-4.00
2023-02-09T05:09:17.939Z,-3.90
2023-02-09T05:11:48.456Z,-3.90
2023-02-09T05:14:16.791Z,-3.90
2023-02-09T05:16:45.066Z,-3.90
2023-02-09T05:19:13.993Z,-3.80
2023-02-09T05:21:43.427Z,-3.90
2023-02-09T05:24:11.697Z,-3.90
2023-02-09T05:26:40.043Z,-3.90
2023-02-09T05:29:08.366Z,-3.90
2023-02-09T05:31:36.725Z,-3.80
2023-02-09T05:34:04.826Z,-3.90
2023-02-09T05:36:33.154Z,-3.80
2023-02-09T05:39:02.779Z,-3.90
2023-02-09T05:41:48.185Z,-3.90
2023-02-09T05:44:16.381Z,-3.90
2023-02-09T05:46:44.716Z,-3.80
2023-02-09T05:49:12.857Z,-3.80
2023-02-09T05:51:40.975Z,-3.70
2023-02-09T05:54:10.487Z,-3.80
2023-02-09T05:56:38.883Z,-3.90
2023-02-09T05:59:07.110Z,-3.80
2023-02-09T06:01:35.459Z,-3.80
2023-02-09T06:04:06.347Z,-3.80
2023-02-09T06:06:34.438Z,-3.80
2023-02-09T06:09:02.715Z,-3.80
2023-02-09T06:11:32.445Z,-3.70
2023-02-09T06:14:00.616Z,-3.60
2023-02-09T06:16:28.888Z,-3.70
2023-02-09T06:18:56.971Z,-3.70
2023-02-09T06:21:25.172Z,-3.70
2023-02-09T06:23:53.381Z,-3.70
2023-02-09T06:26:21.686Z,-3.80
2023-02-09T06:28:51.371Z,-3.80
2023-02-09T06:31:19.648Z,-3.70
2023-02-09T06:33:47.971Z,-3.80
2023-02-09T06:36:16.232Z,-3.80
2023-02-09T06:38:44.412Z,-3.80
2023-02-09T06:41:12.781Z,-3.80
2023-02-09T06:43:42.964Z,-3.80
2023-02-09T06:46:14.399Z,-3.80
2023-02-09T06:48:42.695Z,-3.80
2023-02-09T06:51:12.040Z,-3.70
2023-02-09T06:53:40.914Z,-3.50
2023-02-09T06:56:09.547Z,-3.40
2023-02-09T06:58:38.734Z,-3.20
2023-02-09T07:01:08.251Z,-2.80
2023-02-09T07:03:38.606Z,-2.50
2023-02-09T07:06:09.087Z,-2.30
2023-02-09T07:08:37.791Z,-2.20
2023-02-09T07:11:07.894Z,-2.00
2023-02-09T07:13:36.688Z,-1.80
2023-02-09T07:16:07.031Z,-1.70
2023-02-09T07:18:35.788Z,-2.00
2023-02-09T07:21:07.920Z,-2.00
2023-02-09T07:23:36.860Z,-2.20
2023-02-09T07:26:13.211Z,-1.90
2023-02-09T07:28:42.034Z,-1.70
2023-02-09T07:31:12.268Z,-1.50
2023-02-09T07:33:40.796Z,-1.20
2023-02-09T07:36:13.123Z,-1.30
2023-02-09T07:38:42.006Z,-1.20
2023-02-09T07:41:15.660Z,-1.40
2023-02-09T07:43:44.043Z,-1.90
2023-02-09T07:46:15.276Z,-2.10
2023-02-09T07:48:43.766Z,-2.40
2023-02-09T07:51:16.481Z,-2.50
2023-02-09T07:53:44.779Z,-2.60
2023-02-09T07:56:13.328Z,-2.60
2023-02-09T07:58:41.771Z,-2.60
2023-02-09T08:01:14.381Z,-2.50
2023-02-09T08:03:45.044Z,-2.40
2023-02-09T08:06:19.665Z,-2.40
2023-02-09T08:08:49.046Z,-2.40
2023-02-09T08:11:24.972Z,-2.30
2023-02-09T08:13:54.441Z,-2.30
2023-02-09T08:16:26.173Z,-2.20
2023-02-09T08:18:58.395Z,-2.20
2023-02-09T08:21:32.872Z,-1.90
2023-02-09T08:24:01.633Z,-1.80
2023-02-09T08:26:30.502Z,-1.50
2023-02-09T08:28:59.736Z,-1.60
2023-02-09T08:31:28.214Z,-1.40
2023-02-09T08:33:56.492Z,-1.20
2023-02-09T08:36:24.893Z,-1.20
2023-02-09T08:38:54.522Z,-1.40
2023-02-09T08:41:22.831Z,-1.50
2023-02-09T08:43:52.532Z,-1.40
2023-02-09T08:46:20.937Z,-1.40
2023-02-09T08:48:49.459Z,-1.40
2023-02-09T08:51:17.999Z,-1.30
2023-02-09T08:53:52.307Z,-1.30
2023-02-09T08:56:23.578Z,-1.30
2023-02-09T08:58:51.850Z,-1.20
2023-02-09T09:01:20.082Z,-1.20
2023-02-09T09:03:48.356Z,-1.10
2023-02-09T09:06:16.609Z,-1.00
2023-02-09T09:08:45.233Z,-1.10
2023-02-09T09:11:14.682Z,-1.10
2023-02-09T09:13:44.502Z,-1.00
2023-02-09T09:16:16.793Z,-1.00
2023-02-09T09:18:45.634Z,-0.90
2023-02-09T09:21:14.037Z,-0.70
2023-02-09T09:23:42.271Z,-0.70
2023-02-09T09:26:11.263Z,-0.50
2023-02-09T09:28:39.791Z,-0.50
2023-02-09T09:31:14.653Z,-0.40
2023-02-09T09:33:43.660Z,-0.40
2023-02-09T09:36:14.604Z,-0.30
2023-02-09T09:38:43.305Z,-0.10
2023-02-09T09:41:22.259Z,-0.20
2023-02-09T09:43:51.766Z,-0.10
2023-02-09T09:46:27.705Z,0.00
2023-02-09T09:48:57.998Z,0.10
2023-02-09T09:51:40.615Z,0.30
2023-02-09T09:54:17.065Z,0.40
2023-02-09T09:56:45.225Z,0.40
2023-02-09T09:59:17.880Z,0.50
2023-02-09T15:05:44.564Z,2.80
2023-02-09T15:08:16.647Z,2.70
2023-02-09T15:10:47.836Z,2.70
2023-02-09T15:13:16.537Z,2.60
2023-02-09T15:15:46.313Z,2.60
2023-02-09T15:18:19.870Z,2.60
2023-02-09T15:20:50.446Z,2.50
2023-02-09T15:23:19.105Z,2.50
2023-02-09T15:25:48.037Z,2.50
2023-02-09T15:28:24.694Z,2.40
2023-02-09T15:30:52.916Z,2.30
2023-02-09T15:33:21.180Z,2.30
2023-02-09T15:35:51.163Z,2.20
2023-02-09T15:38:19.851Z,2.20
2023-02-09T15:41:07.276Z,2.20
2023-02-09T15:43:53.183Z,2.10
2023-02-09T15:46:39.171Z,2.10
2023-02-09T15:49:07.620Z,2.10
2023-02-09T15:51:39.769Z,2.10
2023-02-09T15:54:12.368Z,2.00
2023-02-09T15:56:41.012Z,2.00
2023-02-09T15:59:17.569Z,1.90
2023-02-09T16:01:45.872Z,1.80
2023-02-09T16:04:16.772Z,1.80
2023-02-09T16:06:50.021Z,1.70
2023-02-09T16:09:21.273Z,1.60
2023-02-09T16:11:50.162Z,1.70
2023-02-09T16:14:21.176Z,1.50
2023-02-09T16:16:50.119Z,1.50
2023-02-09T16:19:19.133Z,1.50
2023-02-09T16:21:53.171Z,1.50
2023-02-09T16:24:27.523Z,1.40
2023-02-09T16:26:56.008Z,1.40
2023-02-09T16:29:25.876Z,1.40
2023-02-09T16:31:54.440Z,1.40
2023-02-09T16:34:22.744Z,1.50
2023-02-09T16:36:52.344Z,1.40
2023-02-09T16:39:22.598Z,1.30
2023-02-09T16:41:51.582Z,1.40
2023-02-09T16:44:22.567Z,1.30
2023-02-09T16:46:53.441Z,1.20
2023-02-09T16:49:35.666Z,1.30
2023-02-09T16:52:12.503Z,1.30
2023-02-09T16:54:44.530Z,1.30
2023-02-09T16:57:14.964Z,1.30
2023-02-09T16:59:43.143Z,1.30
2023-02-09T17:02:31.776Z,1.20
2023-02-09T17:05:01.715Z,1.20
2023-02-09T17:07:39.772Z,1.20
2023-02-09T17:10:18.534Z,1.20
2023-02-09T17:12:46.727Z,1.20
2023-02-09T17:15:29.006Z,1.20
2023-02-09T17:18:02.815Z,1.20
2023-02-09T17:20:38.214Z,1.20
2023-02-09T17:23:07.935Z,1.20
2023-02-09T17:25:36.166Z,1.20
2023-02-09T17:28:04.490Z,1.10
2023-02-09T17:30:36.251Z,1.10
2023-02-09T17:33:07.208Z,1.10
2023-02-09T17:36:10.029Z,1.10
2023-02-09T17:38:32.215Z,1.10
2023-02-09T17:41:03.034Z,1.10
2023-02-09T17:43:31.448Z,1.10
2023-02-09T17:45:59.907Z,1.00
2023-02-09T17:48:28.180Z,1.00
2023-02-09T17:50:58.084Z,1.00
2023-02-09T17:53:29.808Z,0.90
2023-02-09T17:55:58.283Z,1.00
2023-02-09T17:58:26.593Z,1.00
2023-02-09T18:00:55.978Z,1.00
2023-02-09T18:03:26.395Z,0.90
2023-02-09T18:05:58.283Z,0.90
2023-02-09T18:08:28.308Z,0.80
2023-02-09T18:10:58.873Z,0.80
2023-02-09T18:13:27.690Z,0.80
2023-02-09T18:15:56.276Z,0.80
2023-02-09T18:18:24.679Z,0.80
2023-02-09T18:20:53.757Z,0.70
2023-02-09T18:23:23.510Z,0.70
2023-02-09T18:25:53.391Z,0.60
2023-02-09T18:28:21.697Z,0.60
2023-02-09T18:30:50.076Z,0.60
2023-02-09T18:33:18.869Z,0.70
2023-02-09T18:35:47.387Z,0.70
2023-02-09T18:38:16.963Z,0.60
2023-02-09T18:40:45.256Z,0.60
2023-02-09T18:43:17.484Z,0.60
2023-02-09T18:45:49.259Z,0.60
2023-02-09T18:48:17.776Z,0.60
2023-02-09T18:50:46.067Z,0.60
2023-02-09T18:53:18.869Z,0.50
2023-02-09T18:55:51.541Z,0.50
2023-02-09T18:58:21.274Z,0.60
2023-02-09T19:00:49.744Z,0.50
2023-02-09T19:03:19.998Z,0.50
2023-02-09T19:05:49.469Z,0.30
2023-02-09T19:08:32.124Z,0.40
2023-02-09T19:11:00.426Z,0.30
2023-02-09T19:13:33.820Z,0.30
2023-02-09T19:16:04.104Z,0.30
2023-02-09T19:18:34.415Z,0.40
2023-02-09T19:21:05.582Z,0.30
2023-02-09T19:23:33.880Z,0.30
2023-02-09T19:26:03.772Z,0.30
2023-02-09T19:28:35.259Z,0.20
2023-02-09T19:31:11.708Z,0.10
2023-02-09T19:33:40.053Z,0.20
2023-02-09T19:36:22.780Z,0.20
2023-02-09T19:38:51.224Z,0.20
2023-02-09T19:41:23.294Z,0.20
2023-02-09T19:43:55.986Z,0.20
2023-02-09T19:46:27.137Z,0.10
2023-02-09T19:48:58.244Z,0.10
2023-02-09T19:51:26.890Z,0.10
2023-02-09T19:53:55.292Z,0.00
2023-02-09T19:56:28.128Z,0.00
2023-02-09T19:58:57.782Z,0.00
2023-02-09T20:01:26.868Z,0.00
2023-02-09T20:03:55.643Z,0.00
2023-02-09T20:06:25.184Z,0.00
2023-02-09T20:08:54.117Z,-0.10
2023-02-09T20:11:23.788Z,-0.10
2023-02-09T20:13:53.502Z,-0.10
2023-02-09T20:16:25.318Z,-0.20
2023-02-09T20:18:54.343Z,-0.20
2023-02-09T20:21:26.580Z,-0.30
2023-02-09T20:23:55.732Z,-0.30
2023-02-09T20:26:28.966Z,-0.30
2023-02-09T20:28:58.014Z,-0.30
2023-02-09T20:31:29.865Z,-0.40
2023-02-09T20:33:58.151Z,-0.40
2023-02-09T20:36:27.929Z,-0.40
2023-02-09T20:38:56.175Z,-0.40
2023-02-09T20:41:24.462Z,-0.40
2023-02-09T20:44:10.158Z,-0.40
2023-02-09T20:46:56.693Z,-0.40
2023-02-09T20:49:29.873Z,-0.40
2023-02-09T20:51:58.440Z,-0.40
2023-02-09T20:54:27.227Z,-0.40
2023-02-09T20:56:55.451Z,-0.40
2023-02-09T20:59:23.604Z,-0.30
2023-02-09T21:01:53.101Z,-0.20
2023-02-09T21:04:21.394Z,-0.20
2023-02-09T21:06:49.738Z,-0.30
2023-02-09T21:09:19.067Z,-0.30
2023-02-09T21:11:47.676Z,-0.30
2023-02-09T21:14:27.122Z,-0.40
2023-02-09T21:17:02.534Z,-0.50
2023-02-09T21:19:31.212Z,-0.50
2023-02-09T21:21:59.290Z,-0.50
2023-02-09T21:24:27.568Z,-0.50
2023-02-09T21:26:55.663Z,-0.40
2023-02-09T21:29:24.194Z,-0.40
2023-02-09T21:31:52.674Z,-0.50
2023-02-09T21:34:23.530Z,-0.50
2023-02-09T21:36:53.776Z,-0.40
2023-02-09T21:39:21.964Z,-0.50
2023-02-09T21:42:07.741Z,-0.50
2023-02-09T21:44:37.875Z,-0.40
2023-02-09T21:47:06.334Z,-0.40
2023-02-09T21:49:35.945Z,-0.40
2023-02-09T21:52:06.385Z,-0.40
2023-02-09T21:54:36.975Z,-0.50
2023-02-09T21:57:05.424Z,-0.60
2023-02-09T21:59:33.539Z,-0.60
2023-02-09T22:02:02.128Z,-0.60
2023-02-09T22:04:30.264Z,-0.50
2023-02-09T22:06:59.741Z,-0.40
2023-02-09T22:09:30.645Z,-0.40
2023-02-09T22:11:58.805Z,-0.30
2023-02-09T22:14:26.952Z,-0.20
2023-02-09T22:16:55.328Z,-0.20
2023-02-09T22:19:24.744Z,-0.20
2023-02-09T22:21:53.267Z,0.00
2023-02-09T22:24:22.860Z,-0.10
2023-02-09T22:26:51.018Z,0.00
2023-02-09T22:29:19.475Z,0.00
2023-02-09T22:31:47.817Z,0.10
2023-02-09T22:34:18.231Z,0.20
2023-02-09T22:36:46.408Z,0.20
2023-02-09T22:39:17.630Z,0.40
2023-02-09T22:41:48.402Z,0.30
2023-02-09T22:44:19.475Z,0.50
2023-02-09T22:46:47.582Z,0.50
2023-02-09T22:49:18.199Z,0.50
2023-02-09T22:51:47.963Z,0.60
2023-02-09T22:54:18.230Z,0.70
2023-02-09T22:56:48.295Z,0.70
2023-02-09T22:59:17.192Z,0.70
2023-02-09T23:01:46.289Z,0.80
2023-02-09T23:04:14.593Z,0.90
2023-02-09T23:06:42.690Z,0.90
2023-02-09T23:09:12.516Z,0.90
2023-02-09T23:11:41.008Z,0.90
2023-02-09T23:14:11.498Z,1.00
2023-02-09T23:16:41.596Z,1.00
2023-02-09T23:19:13.148Z,1.00
2023-02-09T23:21:43.157Z,1.10
2023-02-09T23:24:12.232Z,1.10
2023-02-09T23:26:40.763Z,1.20
2023-02-09T23:29:12.509Z,1.10
2023-02-09T23:31:41.166Z,1.10
2023-02-09T23:34:11.558Z,1.10
2023-02-09T23:36:39.731Z,1.20
2023-02-09T23:39:08.160Z,1.20
2023-02-09T23:41:36.836Z,1.20
2023-02-09T23:44:05.197Z,1.30
2023-02-09T23:46:37.468Z,1.30
2023-02-09T23:49:06.004Z,1.30
2023-02-09T23:51:36.633Z,1.30
2023-02-09T23:54:07.440Z,1.30
2023-02-09T23:56:37.954Z,1.30
2023-02-09T23:59:07.680Z,1.40
